Time;durP1;ratioP1;P1;durP2;ratioP2;P2;SDS_P1;SDS_P2;PMS_P1;PMS_P2;Temp;Humidity;BMP_temperature;BMP_pressure;BME280_temperature;BME280_humidity;BME280_pressure;Samples;Min_cycle;Max_cycle;Signal;HPM_P1;HPM_P2
2024/02/02 00:01:33;;;;;;;21.43;6.77;;;;;;;4.50;80.77;97040.56;5029566;28;20206;-75
2024/02/02 00:03:58;;;;;;;16.93;6.70;;;;;;;4.42;81.57;97041.88;5030735;28;20183;-75
2024/02/02 00:06:24;;;;;;;31.23;9.70;;;;;;;4.32;81.35;97041.44;5013455;28;20265;-75
2024/02/02 00:08:49;;;;;;;29.97;8.73;;;;;;;4.26;81.41;97047.72;5030082;28;20575;-75
2024/02/02 00:11:15;;;;;;;15.10;5.57;;;;;;;4.10;81.50;97051.91;5030583;28;20683;-75
2024/02/02 00:13:40;;;;;;;12.60;3.67;;;;;;;4.11;81.45;97047.59;5031191;28;20281;-75
2024/02/02 00:16:06;;;;;;;9.83;3.93;;;;;;;3.94;81.42;97043.25;5030859;28;20179;-75
2024/02/02 00:18:31;;;;;;;10.07;4.43;;;;;;;4.02;81.21;97043.72;5011001;28;20832;-75
2024/02/02 00:20:56;;;;;;;20.27;7.17;;;;;;;4.02;81.60;97036.00;5012564;28;20210;-75
2024/02/02 00:23:23;;;;;;;14.33;7.00;;;;;;;4.04;81.81;97039.34;5007301;28;20194;-75
2024/02/02 00:25:48;;;;;;;24.73;8.13;;;;;;;3.97;81.61;97032.81;5017970;28;20285;-75
2024/02/02 00:28:14;;;;;;;23.73;7.47;;;;;;;3.94;81.94;97035.53;5012920;28;20273;-75
2024/02/02 00:30:40;;;;;;;12.97;4.37;;;;;;;3.88;81.72;97033.25;5006540;28;20213;-75
2024/02/02 00:33:06;;;;;;;14.17;5.07;;;;;;;3.82;82.10;97029.22;4996380;28;20282;-75
2024/02/02 00:35:32;;;;;;;14.17;4.07;;;;;;;3.78;81.88;97019.97;4996327;28;20686;-75
2024/02/02 00:37:57;;;;;;;9.27;3.77;;;;;;;3.77;82.32;97022.63;4996572;28;20210;-75
2024/02/02 00:40:24;;;;;;;13.03;5.50;;;;;;;3.68;82.30;97014.44;4995994;28;20196;-75
2024/02/02 00:42:49;;;;;;;14.33;5.30;;;;;;;3.78;81.98;97014.84;4995471;28;20731;-75
2024/02/02 00:45:15;;;;;;;16.60;7.20;;;;;;;3.78;81.98;97011.44;5003157;28;20336;-75
2024/02/02 00:47:40;;;;;;;12.53;4.47;;;;;;;3.65;81.09;97006.88;5030682;28;20656;-75
2024/02/02 00:50:06;;;;;;;8.03;4.10;;;;;;;3.75;81.25;97006.44;5012326;28;20196;-75
2024/02/02 00:52:32;;;;;;;8.20;3.50;;;;;;;3.73;81.21;97005.69;5030740;28;20218;-75
2024/02/02 00:54:58;;;;;;;9.93;3.60;;;;;;;3.77;81.47;97002.91;5006381;28;20187;-75
2024/02/02 00:57:23;;;;;;;7.57;3.20;;;;;;;3.61;81.85;96997.63;5030078;28;20629;-75
2024/02/02 00:59:50;;;;;;;10.90;3.90;;;;;;;3.55;81.86;97005.63;5028753;28;20236;-75
2024/02/02 01:02:15;;;;;;;8.13;3.20;;;;;;;3.76;80.90;96990.13;5028867;28;20210;-75
2024/02/02 01:04:41;;;;;;;12.53;3.67;;;;;;;3.78;80.65;96983.19;5007710;28;20185;-75
2024/02/02 01:07:07;;;;;;;9.37;3.73;;;;;;;3.67;81.19;96992.22;5004046;28;20188;-75
2024/02/02 01:09:32;;;;;;;9.77;3.60;;;;;;;3.91;81.15;96984.28;4996480;28;20192;-75
2024/02/02 01:11:58;;;;;;;10.70;3.40;;;;;;;3.91;80.95;96985.13;5028668;28;20249;-75
2024/02/02 01:14:23;;;;;;;6.73;3.27;;;;;;;3.88;81.00;96987.81;5011503;28;20206;-75
2024/02/02 01:16:49;;;;;;;7.80;3.10;;;;;;;3.87;80.73;96985.31;5013937;28;20198;-75
2024/02/02 01:19:14;;;;;;;8.00;2.93;;;;;;;3.96;80.96;96977.16;5005391;28;20190;-75
2024/02/02 01:21:40;;;;;;;7.47;3.00;;;;;;;3.88;80.93;96985.25;5028485;28;20214;-75
2024/02/02 01:24:05;;;;;;;8.10;3.37;;;;;;;3.85;81.31;96984.56;5007862;28;20269;-75
2024/02/02 01:26:30;;;;;;;6.13;3.00;;;;;;;3.81;81.39;96973.59;5036883;28;20188;-75
2024/02/02 01:28:56;;;;;;;8.57;3.10;;;;;;;3.76;81.03;96967.00;5038117;28;20606;-75
2024/02/02 01:31:21;;;;;;;9.30;2.80;;;;;;;3.69;81.22;96979.28;5019252;28;20215;-74
2024/02/02 01:33:46;;;;;;;7.23;3.43;;;;;;;3.65;81.26;96968.34;5004717;28;20189;-75
2024/02/02 01:36:12;;;;;;;10.73;3.17;;;;;;;3.62;80.93;96972.75;5029952;28;20189;-75
2024/02/02 01:38:38;;;;;;;9.43;3.40;;;;;;;3.57;81.34;96970.44;5012254;28;20202;-75
2024/02/02 01:41:04;;;;;;;7.00;2.87;;;;;;;3.53;81.82;96963.75;5005415;28;20220;-75
2024/02/02 01:43:30;;;;;;;7.10;3.27;;;;;;;3.57;81.88;96970.44;5003014;28;20225;-75
2024/02/02 01:45:55;;;;;;;9.27;3.33;;;;;;;3.58;81.84;96977.22;5028681;28;20339;-75
2024/02/02 01:48:20;;;;;;;8.30;3.33;;;;;;;3.63;82.53;96977.84;5029892;28;20195;-75
2024/02/02 01:50:46;;;;;;;5.83;3.70;;;;;;;3.65;82.29;96970.06;5029486;28;20233;-75
2024/02/02 01:53:11;;;;;;;10.43;3.73;;;;;;;3.65;81.83;96983.75;5028762;28;20606;-75
2024/02/02 01:55:36;;;;;;;11.77;4.27;;;;;;;3.67;82.31;96986.25;5029886;28;20217;-75
2024/02/02 01:58:02;;;;;;;8.07;3.83;;;;;;;3.64;82.95;96976.94;5029979;28;20198;-75
2024/02/02 02:00:27;;;;;;;12.60;4.00;;;;;;;3.67;82.62;96973.41;5011673;28;20185;-75
2024/02/02 02:02:53;;;;;;;7.90;3.60;;;;;;;3.64;83.20;96965.84;5004777;28;20187;-75
2024/02/02 02:05:18;;;;;;;6.73;3.63;;;;;;;3.59;84.18;96966.03;5029596;28;20248;-75
2024/02/02 02:07:45;;;;;;;8.10;5.30;;;;;;;3.63;85.02;96974.47;5012319;28;20233;-75
2024/02/02 02:10:12;;;;;;;7.60;4.53;;;;;;;3.61;85.29;96971.09;5030387;28;20225;-75
2024/02/02 02:12:37;;;;;;;5.20;4.23;;;;;;;3.63;85.25;96969.31;5032190;28;20209;-75
2024/02/02 02:15:02;;;;;;;7.77;4.50;;;;;;;3.72;85.97;96973.19;5015549;28;20198;-74
2024/02/02 02:17:28;;;;;;;11.00;4.43;;;;;;;3.71;86.58;96972.38;5015555;28;20237;-74
2024/02/02 02:19:53;;;;;;;7.83;5.13;;;;;;;3.70;87.32;96962.97;5032868;28;20227;-74
2024/02/02 02:22:18;;;;;;;6.50;5.50;;;;;;;3.72;87.74;96962.94;5015305;28;20709;-75
2024/02/02 02:24:44;;;;;;;8.93;4.90;;;;;;;3.75;88.28;96962.78;5002172;28;20183;-75
2024/02/02 02:27:10;;;;;;;7.67;5.43;;;;;;;3.88;87.49;96969.00;5015393;28;20541;-75
2024/02/02 02:29:35;;;;;;;7.77;4.73;;;;;;;3.97;87.88;96968.56;5010781;28;20743;-75
2024/02/02 02:32:01;;;;;;;8.10;4.57;;;;;;;3.86;88.80;96955.38;5031222;28;20203;-75
2024/02/02 02:34:27;;;;;;;7.73;4.40;;;;;;;4.00;88.52;96955.56;5033136;28;20619;-75
2024/02/02 02:36:53;;;;;;;11.77;4.53;;;;;;;4.16;87.96;96956.50;5015194;28;20193;-75
2024/02/02 02:39:19;;;;;;;8.83;4.43;;;;;;;4.23;87.89;96957.84;5031676;28;20198;-75
2024/02/02 02:41:44;;;;;;;7.50;4.60;;;;;;;4.25;88.41;96950.09;5014538;28;20214;-75
2024/02/02 02:44:12;;;;;;;7.87;4.63;;;;;;;4.29;88.39;96943.88;5031466;28;20244;-75
2024/02/02 02:46:38;;;;;;;5.30;4.20;;;;;;;4.31;88.20;96946.38;5030680;28;20240;-75
2024/02/02 02:49:03;;;;;;;7.00;4.30;;;;;;;4.39;88.10;96933.97;4998777;28;20198;-75
2024/02/02 02:51:28;;;;;;;6.83;4.13;;;;;;;4.38;88.00;96940.03;5014300;28;20237;-75
2024/02/02 02:53:53;;;;;;;8.50;4.43;;;;;;;4.40;88.00;96936.47;5032666;28;20186;-75
2024/02/02 02:56:19;;;;;;;6.77;4.17;;;;;;;4.44;88.01;96937.16;5032508;28;20197;-75
2024/02/02 02:58:44;;;;;;;6.37;4.30;;;;;;;4.51;87.79;96938.53;5031196;28;20225;-75
2024/02/02 03:01:09;;;;;;;9.07;3.93;;;;;;;4.58;87.44;96950.16;5014075;28;20657;-75
2024/02/02 03:03:35;;;;;;;5.80;3.80;;;;;;;4.59;87.37;96946.66;5031336;28;20193;-75
2024/02/02 03:06:00;;;;;;;8.67;4.40;;;;;;;4.63;87.31;96948.19;5031127;28;20197;-75
2024/02/02 03:08:25;;;;;;;3.80;3.37;;;;;;;4.64;87.04;96944.69;5005236;28;20186;-75
2024/02/02 03:10:51;;;;;;;7.07;3.50;;;;;;;4.73;86.78;96943.41;5003237;28;20214;-75
2024/02/02 03:13:16;;;;;;;7.63;3.07;;;;;;;4.77;86.75;96937.19;5014332;28;20281;-75
2024/02/02 03:15:42;;;;;;;5.80;3.30;;;;;;;4.78;86.57;96937.13;5002310;28;20252;-75
2024/02/02 03:18:08;;;;;;;4.23;3.30;;;;;;;4.79;86.81;96935.38;5032034;28;20322;-75
2024/02/02 03:20:34;;;;;;;4.03;2.93;;;;;;;4.87;86.18;96935.81;5013384;28;20194;-75
2024/02/02 03:22:59;;;;;;;5.83;3.37;;;;;;;4.84;86.40;96943.69;5008951;28;20198;-75
2024/02/02 03:25:25;;;;;;;4.67;2.90;;;;;;;4.88;86.47;96941.81;5013621;28;20201;-75
2024/02/02 03:27:50;;;;;;;3.93;3.07;;;;;;;4.88;85.94;96932.34;5031908;28;20259;-75
2024/02/02 03:30:15;;;;;;;5.07;3.23;;;;;;;4.91;86.04;96933.91;5013711;28;20221;-75
2024/02/02 03:32:41;;;;;;;4.90;3.03;;;;;;;4.92;86.21;96935.56;5031906;28;20948;-74
2024/02/02 03:35:07;;;;;;;5.93;2.90;;;;;;;4.94;85.80;96932.00;5030722;28;20558;-75
2024/02/02 03:37:32;;;;;;;4.53;2.80;;;;;;;4.93;85.93;96929.50;5031928;28;20194;-75
2024/02/02 03:39:57;;;;;;;4.37;3.03;;;;;;;4.91;86.21;96921.03;5031267;28;20672;-75
2024/02/02 03:42:23;;;;;;;4.67;2.80;;;;;;;4.93;86.18;96924.34;5012725;28;20629;-75
2024/02/02 03:44:48;;;;;;;4.07;2.77;;;;;;;4.95;86.44;96917.41;5006155;28;20275;-75
2024/02/02 03:47:13;;;;;;;6.30;3.03;;;;;;;4.97;86.27;96921.56;5013882;28;20183;-75
2024/02/02 03:49:39;;;;;;;6.23;2.90;;;;;;;5.07;85.80;96920.16;4997552;28;20201;-75
2024/02/02 03:52:07;;;;;;;4.30;2.70;;;;;;;5.12;85.75;96917.34;5030982;28;20210;-74
2024/02/02 03:54:33;;;;;;;5.07;2.90;;;;;;;5.11;85.41;96933.69;5031215;28;20198;-75
2024/02/02 03:56:58;;;;;;;6.23;2.80;;;;;;;5.07;86.15;96924.50;5005944;28;20206;-75
2024/02/02 03:59:24;;;;;;;5.87;2.90;;;;;;;5.16;85.61;96923.16;5012572;28;20692;-75
2024/02/02 04:01:50;;;;;;;11.97;3.20;;;;;;;5.08;85.98;96929.56;5013252;28;20217;-75
2024/02/02 04:04:16;;;;;;;5.13;3.00;;;;;;;5.16;85.83;96931.72;4997168;28;21568;-75
2024/02/02 04:06:41;;;;;;;4.90;3.17;;;;;;;5.11;85.74;96939.69;5004089;28;20273;-75
2024/02/02 04:09:08;;;;;;;5.07;2.90;;;;;;;5.26;85.56;96938.06;5031176;28;20273;-75
2024/02/02 04:11:35;;;;;;;4.33;3.37;;;;;;;5.27;85.30;96939.72;5030500;28;20289;-74
2024/02/02 04:14:00;;;;;;;4.87;3.50;;;;;;;5.31;85.34;96936.06;5013345;28;20206;-75
2024/02/02 04:16:25;;;;;;;6.73;3.60;;;;;;;5.30;85.28;96936.13;4997000;28;20194;-75
2024/02/02 04:18:51;;;;;;;6.67;3.10;;;;;;;5.16;86.04;96941.19;5031042;28;20241;-75
2024/02/02 04:21:16;;;;;;;4.83;3.40;;;;;;;5.29;85.89;96931.91;5030498;28;20237;-75
2024/02/02 04:23:41;;;;;;;11.57;3.80;;;;;;;5.30;85.87;96937.00;5024080;28;20561;-75
2024/02/02 04:26:06;;;;;;;7.40;3.73;;;;;;;5.36;85.42;96938.41;5029532;28;20557;-75
2024/02/02 04:28:32;;;;;;;6.20;3.60;;;;;;;5.42;85.65;96932.91;5029777;28;20675;-75
2024/02/02 04:30:57;;;;;;;5.77;3.57;;;;;;;5.43;85.43;96939.72;5003061;28;20221;-75
2024/02/02 04:33:22;;;;;;;6.13;3.43;;;;;;;5.46;85.13;96944.72;5010694;28;20191;-75
2024/02/02 04:35:48;;;;;;;8.77;3.67;;;;;;;5.47;85.62;96945.53;5030759;28;20178;-75
2024/02/02 04:38:17;;;;;;;7.27;4.23;;;;;;;5.44;85.63;96941.38;5030837;28;20206;-75
2024/02/02 04:40:42;;;;;;;8.80;4.20;;;;;;;5.48;85.76;96944.63;5012189;28;20232;-75
2024/02/02 04:43:07;;;;;;;5.67;4.00;;;;;;;5.51;85.76;96934.16;5030675;28;20189;-75
2024/02/02 04:45:33;;;;;;;12.00;4.27;;;;;;;5.46;85.54;96941.31;5002960;28;20190;-75
2024/02/02 04:47:58;;;;;;;10.17;5.27;;;;;;;5.50;85.95;96932.50;5012937;28;20240;-75
2024/02/02 04:50:25;;;;;;;7.20;4.40;;;;;;;5.53;85.88;96938.31;5011404;28;20195;-75
2024/02/02 04:52:50;;;;;;;6.13;3.83;;;;;;;5.52;86.04;96943.56;5004503;28;20272;-75
2024/02/02 04:55:16;;;;;;;6.67;3.67;;;;;;;5.60;85.73;96951.72;5029067;28;20226;-75
2024/02/02 04:57:41;;;;;;;7.43;4.17;;;;;;;5.56;86.16;96947.63;5030526;28;20267;-75
2024/02/02 05:00:08;;;;;;;6.30;4.47;;;;;;;5.59;86.00;96955.22;5001191;28;20187;-75
2024/02/02 05:02:33;;;;;;;5.23;4.20;;;;;;;5.61;85.85;96961.09;4999376;28;20221;-75
2024/02/02 05:04:59;;;;;;;5.53;4.03;;;;;;;5.59;86.19;96956.03;5029079;28;20190;-75
2024/02/02 05:07:24;;;;;;;7.47;5.07;;;;;;;5.65;86.35;96952.28;5012870;28;20193;-75
2024/02/02 05:09:49;;;;;;;7.77;3.97;;;;;;;5.61;86.33;96958.53;5012414;28;20221;-75
2024/02/02 05:12:16;;;;;;;5.83;4.17;;;;;;;5.63;86.37;96957.53;5012269;28;20581;-75
2024/02/02 05:14:42;;;;;;;5.77;5.07;;;;;;;5.63;86.71;96954.94;5008148;28;20192;-75
2024/02/02 05:17:07;;;;;;;8.93;5.13;;;;;;;5.65;86.49;96960.00;5030163;28;20280;-75
2024/02/02 05:19:32;;;;;;;6.13;4.97;;;;;;;5.67;86.53;96958.19;5012764;28;20654;-75
2024/02/02 05:21:58;;;;;;;6.60;4.37;;;;;;;5.68;86.54;96957.28;5005342;28;20213;-75
2024/02/02 05:24:23;;;;;;;8.30;4.60;;;;;;;5.65;87.12;96965.16;5028717;28;20193;-75
2024/02/02 05:26:48;;;;;;;7.93;5.07;;;;;;;5.70;87.16;96965.75;5012219;28;20203;-75
2024/02/02 05:29:14;;;;;;;10.13;6.00;;;;;;;5.65;87.38;96971.19;5028598;28;20189;-75
2024/02/02 05:31:39;;;;;;;12.07;9.27;;;;;;;5.59;87.58;96989.53;5007478;28;20263;-75
2024/02/02 05:34:04;;;;;;;9.53;7.47;;;;;;;5.66;87.46;96995.19;5008921;28;20711;-75
2024/02/02 05:36:30;;;;;;;8.10;5.93;;;;;;;5.52;87.86;97007.97;5029798;28;20683;-75
2024/02/02 05:38:55;;;;;;;8.73;6.20;;;;;;;5.69;87.03;97015.66;5028414;28;20244;-75
2024/02/02 05:41:20;;;;;;;9.10;5.63;;;;;;;5.73;87.12;97017.13;5010432;28;20242;-75
2024/02/02 05:43:46;;;;;;;9.97;4.60;;;;;;;5.72;87.28;97022.38;5030055;28;20189;-75
2024/02/02 05:46:12;;;;;;;5.43;4.30;;;;;;;5.72;87.38;97017.22;5015073;28;20190;-75
2024/02/02 05:48:37;;;;;;;8.20;4.20;;;;;;;5.71;87.76;97018.13;5015304;28;20320;-75
2024/02/02 05:51:02;;;;;;;5.87;4.20;;;;;;;5.79;87.46;97013.41;5023435;28;20210;-75
2024/02/02 05:53:28;;;;;;;7.83;4.67;;;;;;;5.76;87.51;97003.28;5015174;28;20189;-75
2024/02/02 05:55:53;;;;;;;7.93;4.57;;;;;;;5.82;87.78;97001.16;5018142;28;20187;-75
2024/02/02 05:58:18;;;;;;;7.83;5.00;;;;;;;5.88;87.13;97000.84;5014414;28;20210;-75
2024/02/02 06:00:44;;;;;;;7.77;4.53;;;;;;;5.90;87.42;97001.63;5032721;28;20730;-75
2024/02/02 06:03:10;;;;;;;7.80;5.10;;;;;;;5.90;87.62;97008.50;5032980;28;20233;-74
2024/02/02 06:05:35;;;;;;;8.77;5.00;;;;;;;5.96;87.12;97005.63;5012495;28;20198;-74
2024/02/02 06:08:06;;;;;;;11.67;6.40;;;;;;;5.94;86.95;97002.31;5030438;28;20191;-75
2024/02/02 06:10:32;;;;;;;10.87;7.77;;;;;;;5.87;87.42;97000.94;5021627;28;20188;-74
2024/02/02 06:12:58;;;;;;;12.70;7.87;;;;;;;5.86;87.42;96994.94;5015159;28;20262;-74
2024/02/02 06:15:23;;;;;;;14.30;10.93;;;;;;;5.82;87.28;96988.28;5013654;28;20237;-75
2024/02/02 06:17:49;;;;;;;18.90;11.70;;;;;;;5.80;87.80;96997.03;5002182;28;20195;-75
2024/02/02 06:20:14;;;;;;;16.07;10.50;;;;;;;5.79;87.80;96998.78;5030892;28;20210;-75
2024/02/02 06:22:40;;;;;;;13.47;9.47;;;;;;;5.77;88.22;96994.63;5031627;28;20583;-75
2024/02/02 06:25:05;;;;;;;13.70;10.10;;;;;;;5.69;88.58;97007.91;5030241;28;20672;-75
2024/02/02 06:27:30;;;;;;;15.37;10.20;;;;;;;5.75;88.38;97010.19;5033118;28;20183;-75
2024/02/02 06:29:58;;;;;;;13.13;10.20;;;;;;;5.73;88.55;97014.56;5007565;28;20190;-75
2024/02/02 06:32:23;;;;;;;17.97;11.07;;;;;;;5.78;88.13;97016.91;5013642;28;20202;-75
2024/02/02 06:34:55;;;;;;;13.90;10.33;;;;;;;5.67;88.78;97020.88;5002957;28;20190;-75
2024/02/02 06:37:20;;;;;;;12.63;9.50;;;;;;;5.78;88.76;97024.63;5031652;28;20750;-75
2024/02/02 06:39:48;;;;;;;15.47;10.33;;;;;;;5.77;88.76;97025.56;5032967;28;20209;-75
2024/02/02 06:42:13;;;;;;;16.70;9.97;;;;;;;5.72;89.11;97036.09;5032196;28;20202;-75
2024/02/02 06:44:39;;;;;;;15.47;9.33;;;;;;;5.73;89.30;97026.63;5029797;28;20197;-75
2024/02/02 06:47:04;;;;;;;10.83;8.60;;;;;;;5.76;89.16;97035.03;5008488;28;20213;-76
2024/02/02 06:49:29;;;;;;;11.83;8.63;;;;;;;5.78;89.16;97042.69;5010114;28;20245;-75
2024/02/02 06:51:55;;;;;;;10.57;8.20;;;;;;;5.85;89.03;97044.84;5029849;28;20302;-75
2024/02/02 06:54:20;;;;;;;11.03;8.00;;;;;;;5.84;88.95;97040.63;5032303;28;20899;-75
2024/02/02 06:56:46;;;;;;;13.33;8.07;;;;;;;5.84;88.97;97040.63;5010357;28;20570;-75
2024/02/02 06:59:11;;;;;;;10.87;8.37;;;;;;;5.87;88.96;97048.19;5020591;28;20282;-75
2024/02/02 07:01:38;;;;;;;11.00;8.67;;;;;;;5.89;88.87;97045.50;4998469;28;20305;-75
2024/02/02 07:04:06;;;;;;;11.77;7.70;;;;;;;5.94;89.06;97036.66;4997100;28;20197;-76
2024/02/02 07:06:32;;;;;;;11.73;7.13;;;;;;;5.90;89.38;97035.13;5013489;28;20549;-75
2024/02/02 07:09:01;;;;;;;9.17;7.13;;;;;;;5.96;89.21;97039.97;4997549;28;20270;-75
2024/02/02 07:11:46;;;;;;;29.63;19.10;;;;;;;6.04;89.20;97038.72;4997335;28;20202;-75
2024/02/02 07:14:43;;;;;;;23.87;16.13;;;;;;;6.02;89.20;97038.81;5029390;28;20205;-75
2024/02/02 07:17:21;;;;;;;11.07;7.00;;;;;;;6.04;89.05;97052.47;5013011;28;20230;-75
2024/02/02 07:19:47;;;;;;;11.63;8.10;;;;;;;6.10;88.78;97059.03;4997797;28;20216;-76
2024/02/02 07:22:31;;;;;;;13.50;12.10;;;;;;;6.16;88.84;97050.94;5007767;28;20230;-75
2024/02/02 07:24:56;;;;;;;10.20;8.50;;;;;;;6.07;89.03;97052.28;5039489;28;20708;-75
2024/02/02 07:27:46;;;;;;;20.53;17.70;;;;;;;6.15;88.51;97062.19;4995296;28;20273;-75
2024/02/02 07:30:13;;;;;;;9.67;7.70;;;;;;;6.08;88.79;97059.09;5030458;28;20277;-75
2024/02/02 07:32:39;;;;;;;8.57;7.23;;;;;;;6.19;88.53;97058.53;5013357;28;20237;-75
2024/02/02 07:35:04;;;;;;;9.83;7.43;;;;;;;6.21;87.90;97059.28;4995843;28;20566;-75
2024/02/02 07:37:32;;;;;;;8.83;6.53;;;;;;;6.21;88.21;97061.88;5013073;28;20202;-75
2024/02/02 07:39:59;;;;;;;7.33;6.63;;;;;;;6.28;87.71;97065.78;5029207;28;20190;-75
2024/02/02 07:42:24;;;;;;;8.30;6.93;;;;;;;6.28;87.66;97055.47;5014245;28;20256;-75
2024/02/02 07:44:50;;;;;;;11.87;9.10;;;;;;;6.29;87.71;97059.69;5005508;28;20628;-75
2024/02/02 07:47:15;;;;;;;9.40;8.43;;;;;;;6.32;87.86;97053.53;5013674;28;20648;-75
2024/02/02 07:49:40;;;;;;;8.83;7.43;;;;;;;6.31;88.01;97046.72;5012982;28;20282;-75
2024/02/02 07:52:06;;;;;;;11.43;7.00;;;;;;;6.31;88.17;97049.28;5030472;28;20764;-75
2024/02/02 07:54:31;;;;;;;9.00;6.90;;;;;;;6.40;88.00;97039.28;5005943;28;20179;-75
2024/02/02 07:56:56;;;;;;;9.17;7.30;;;;;;;6.44;87.56;97042.50;5030549;28;20208;-76
2024/02/02 07:59:22;;;;;;;9.00;7.23;;;;;;;6.42;87.62;97044.34;4995421;28;20193;-74
2024/02/02 08:01:47;;;;;;;8.87;7.03;;;;;;;6.42;87.74;97049.50;5030292;28;20672;-75
2024/02/02 08:04:13;;;;;;;8.60;7.20;;;;;;;6.46;87.56;97056.19;5030595;28;20182;-75
2024/02/02 08:06:39;;;;;;;14.10;9.53;;;;;;;6.50;87.60;97058.50;5030876;28;20178;-75
2024/02/02 08:09:04;;;;;;;28.47;16.53;;;;;;;6.53;87.12;97052.31;5006217;28;20547;-75
2024/02/02 08:11:35;;;;;;;21.87;16.83;;;;;;;6.59;86.70;97069.22;5012611;28;20198;-75
2024/02/02 08:14:00;;;;;;;27.07;22.37;;;;;;;6.71;86.57;97056.44;5030616;28;20241;-75
2024/02/02 08:16:25;;;;;;;68.83;43.20;;;;;;;6.59;86.40;97048.56;5013133;28;20186;-75
2024/02/02 08:18:51;;;;;;;31.97;23.83;;;;;;;6.59;85.97;97046.00;5029596;28;20566;-74
2024/02/02 08:21:16;;;;;;;22.53;16.93;;;;;;;6.72;85.88;97041.81;5029947;28;20214;-76
2024/02/02 08:23:42;;;;;;;17.63;15.80;;;;;;;6.63;86.10;97039.75;5030441;28;20197;-74
2024/02/02 08:26:08;;;;;;;14.87;13.40;;;;;;;6.68;85.93;97041.13;5012529;28;20269;-74
2024/02/02 08:28:33;;;;;;;8.17;6.87;;;;;;;6.61;86.10;97031.25;5007638;28;20184;-75
2024/02/02 08:30:59;;;;;;;7.97;6.57;;;;;;;6.52;85.94;97025.69;5023527;28;20203;-75
2024/02/02 08:33:25;;;;;;;7.67;6.77;;;;;;;6.30;85.63;97027.81;5009903;28;20175;-75
2024/02/02 08:35:50;;;;;;;8.77;6.00;;;;;;;6.59;84.59;97020.19;4999094;28;20801;-75
2024/02/02 08:38:16;;;;;;;6.77;5.80;;;;;;;6.76;84.21;97025.22;4999456;28;20202;-74
2024/02/02 08:40:45;;;;;;;5.77;5.17;;;;;;;6.74;83.93;97030.47;5011664;28;20222;-74
2024/02/02 08:43:15;;;;;;;6.27;4.70;;;;;;;6.79;83.46;97027.59;5013262;28;20182;-74
2024/02/02 08:45:40;;;;;;;10.33;5.60;;;;;;;6.59;83.59;97022.75;5027618;28;20191;-74
2024/02/02 08:48:14;;;;;;;7.00;5.40;;;;;;;6.70;83.33;97023.81;5030143;28;20236;-74
2024/02/02 08:50:40;;;;;;;4.70;4.17;;;;;;;6.85;82.88;97031.59;5028924;28;20748;-75
2024/02/02 08:53:12;;;;;;;7.80;5.07;;;;;;;7.00;82.12;97035.88;5009577;28;20198;-75
2024/02/02 08:55:45;;;;;;;7.00;4.80;;;;;;;7.12;81.84;97044.66;5007532;28;20179;-75
2024/02/02 08:58:19;;;;;;;6.87;5.50;;;;;;;6.97;81.52;97028.28;4995748;28;20577;-75
2024/02/02 09:00:44;;;;;;;7.63;4.83;;;;;;;6.93;80.79;97025.06;5029284;28;20664;-75
2024/02/02 09:03:25;;;;;;;5.60;4.90;;;;;;;7.03;80.98;97023.59;5030009;28;20187;-75
2024/02/02 09:05:51;;;;;;;5.67;4.50;;;;;;;6.89;80.82;97026.19;4995429;28;20198;-75
2024/02/02 09:08:16;;;;;;;5.97;4.57;;;;;;;7.08;80.69;97028.53;5028765;28;20232;-76
2024/02/02 09:10:45;;;;;;;6.93;5.20;;;;;;;7.19;79.87;97027.88;5029529;28;20248;-75
2024/02/02 09:13:20;;;;;;;5.90;5.30;;;;;;;7.16;79.75;97035.81;5028916;28;20267;-76
2024/02/02 09:15:46;;;;;;;5.10;4.30;;;;;;;7.01;80.21;97030.63;5011609;28;20174;-76
2024/02/02 09:18:23;;;;;;;6.80;4.43;;;;;;;7.13;80.09;97025.66;5008262;28;20205;-75
2024/02/02 09:20:49;;;;;;;5.70;4.07;;;;;;;7.01;79.66;97034.97;5031360;28;20223;-76
2024/02/02 09:23:15;;;;;;;6.63;4.40;;;;;;;7.41;78.93;97038.59;5031386;28;20182;-76
2024/02/02 09:25:41;;;;;;;5.17;4.40;;;;;;;7.28;78.66;97045.44;5016012;28;20261;-76
2024/02/02 09:28:37;;;;;;;6.83;4.80;;;;;;;7.44;78.13;97041.00;5031781;28;20179;-76
2024/02/02 09:31:06;;;;;;;4.60;3.77;;;;;;;7.36;77.88;97044.06;5037640;28;20676;-76
2024/02/02 09:33:31;;;;;;;5.50;3.60;;;;;;;7.59;77.51;97037.47;4999520;28;20681;-76
2024/02/02 09:35:58;;;;;;;5.13;3.50;;;;;;;7.33;78.25;97048.56;5032076;28;20183;-76
2024/02/02 09:38:24;;;;;;;6.83;3.73;;;;;;;7.44;77.50;97048.75;4994138;28;20815;-76
2024/02/02 09:41:01;;;;;;;6.37;3.90;;;;;;;7.66;76.84;97048.28;5020304;28;20222;-77
2024/02/02 09:43:52;;;;;;;7.23;3.20;;;;;;;7.39;76.87;97048.19;5031310;28;20190;-77
2024/02/02 09:46:27;;;;;;;3.80;3.13;;;;;;;7.59;76.22;97045.22;5015240;28;20202;-76
2024/02/02 09:49:01;;;;;;;3.70;2.77;;;;;;;7.64;75.65;97053.56;5032486;28;20174;-76
2024/02/02 09:51:37;;;;;;;4.27;3.50;;;;;;;7.77;75.95;97047.63;5013016;28;20680;-76
2024/02/02 09:54:17;;;;;;;4.63;2.80;;;;;;;7.70;75.65;97054.13;5029209;28;20186;-76
2024/02/02 09:57:13;;;;;;;4.33;2.93;;;;;;;7.80;74.86;97052.63;5012586;28;20177;-76
2024/02/02 09:59:56;;;;;;;6.70;3.50;;;;;;;7.75;75.48;97055.47;4996858;28;20613;-77
2024/02/02 10:02:31;;;;;;;3.57;3.00;;;;;;;7.69;75.05;97058.47;5015013;28;20203;-76
2024/02/02 10:05:03;;;;;;;4.23;2.77;;;;;;;7.80;74.85;97063.81;5013484;28;20180;-76
2024/02/02 10:07:54;;;;;;;4.57;3.23;;;;;;;7.73;74.70;97072.03;5033383;28;20233;-76
2024/02/02 10:10:37;;;;;;;3.70;2.50;;;;;;;7.70;74.74;97061.88;5008762;28;20191;-76
2024/02/02 10:13:17;;;;;;;7.33;4.53;;;;;;;7.89;74.23;97052.91;5014270;28;20178;-76
2024/02/02 10:15:55;;;;;;;5.40;2.73;;;;;;;7.42;74.57;97048.03;5017085;28;20265;-76
2024/02/02 10:18:55;;;;;;;3.23;2.87;;;;;;;7.90;74.05;97051.13;5014753;28;20730;-76
2024/02/02 10:21:25;;;;;;;4.97;2.90;;;;;;;7.95;73.87;97049.09;4997654;28;20206;-76
2024/02/02 10:24:39;;;;;;;3.67;2.27;;;;;;;8.22;72.48;97054.31;5035855;28;20214;-76
2024/02/02 10:27:25;;;;;;;4.37;3.10;;;;;;;7.79;72.49;97049.22;4955158;29;20733;-77
2024/02/02 10:30:05;;;;;;;4.87;2.20;;;;;;;7.97;71.19;97052.44;4932434;28;20303;-77
2024/02/02 10:32:43;;;;;;;2.27;2.03;;;;;;;8.12;70.83;97059.22;4941386;29;20715;-77
2024/02/02 10:35:30;;;;;;;3.50;2.80;;;;;;;8.11;70.23;97054.97;4935912;29;20193;-77
2024/02/02 10:38:04;;;;;;;2.40;2.10;;;;;;;7.92;70.25;97039.75;4959598;28;20220;-77
2024/02/02 10:40:36;;;;;;;2.43;2.10;;;;;;;8.10;69.76;97035.19;4950753;29;20774;-77
2024/02/02 10:43:12;;;;;;;3.27;2.60;;;;;;;8.21;69.61;97027.59;4936205;29;20204;-77
2024/02/02 10:46:17;;;;;;;4.47;2.17;;;;;;;7.93;69.15;97020.72;4953157;28;20189;-78
2024/02/02 10:48:54;;;;;;;1.97;1.80;;;;;;;7.82;69.01;97010.22;4934541;29;20232;-77
2024/02/02 10:51:42;;;;;;;2.77;2.57;;;;;;;8.00;69.43;97004.84;4931997;29;20228;-77
2024/02/02 10:54:10;;;;;;;2.87;2.47;;;;;;;8.06;68.32;97002.69;4935162;29;20593;-78
2024/02/02 10:57:17;;;;;;;4.80;2.37;;;;;;;8.32;67.98;96987.28;4952823;29;20189;-78
2024/02/02 11:00:01;;;;;;;3.40;2.67;;;;;;;8.43;67.75;96995.22;4935875;29;20735;-78
2024/02/02 11:02:46;;;;;;;4.63;3.20;;;;;;;8.62;66.73;96984.47;4957289;28;20225;-77
2024/02/02 11:05:25;;;;;;;2.63;2.03;;;;;;;8.63;65.87;96981.78;5022517;28;20698;-77
2024/02/02 11:07:54;;;;;;;2.23;1.50;;;;;;;8.66;64.84;96979.00;5012736;28;20808;-77
2024/02/02 11:10:24;;;;;;;1.93;1.53;;;;;;;8.67;63.93;96979.84;5032750;28;20193;-77
2024/02/02 11:13:04;;;;;;;1.77;1.50;;;;;;;8.83;62.68;96972.69;5015445;28;20686;-77
2024/02/02 11:16:03;;;;;;;1.77;1.57;;;;;;;9.09;62.29;96974.38;4998172;28;20183;-78
2024/02/02 11:18:47;;;;;;;2.93;1.70;;;;;;;9.29;61.91;96975.63;5033256;28;20560;-77
2024/02/02 11:21:38;;;;;;;2.07;1.60;;;;;;;9.51;60.74;96981.91;5031676;28;20195;-78
2024/02/02 11:24:21;;;;;;;1.67;1.37;;;;;;;9.32;59.74;96975.41;5032389;28;20182;-78
2024/02/02 11:27:10;;;;;;;2.93;1.40;;;;;;;9.28;59.36;96979.16;5012276;28;20174;-78
2024/02/02 11:30:10;;;;;;;1.73;1.40;;;;;;;9.58;57.48;96975.38;5024366;28;20198;-78
2024/02/02 11:32:51;;;;;;;2.00;1.30;;;;;;;9.53;57.65;96975.69;4967945;28;20221;-77
2024/02/02 11:35:30;;;;;;;2.80;1.60;;;;;;;9.82;57.79;96967.66;4951267;29;20200;-78
2024/02/02 11:38:33;;;;;;;1.43;1.27;;;;;;;9.87;56.05;96963.78;4952541;28;20209;-77
2024/02/02 11:40:59;;;;;;;1.40;1.20;;;;;;;9.77;54.67;96962.78;4900411;29;20700;-77
2024/02/02 11:43:26;;;;;;;1.43;1.10;;;;;;;9.72;53.74;96958.84;4970562;28;20189;-79
2024/02/02 11:45:52;;;;;;;1.77;1.00;;;;;;;9.74;53.32;96949.19;4923355;29;20189;-79
2024/02/02 11:48:49;;;;;;;1.30;1.20;;;;;;;10.02;53.19;96953.25;4933168;29;20232;-78